• Join FlightAware (Why Join?)
  • Login
  • US Flag 
01:25AM EDT


 

Airport Tracker/Info


-or-


 

Live Flight TrackerFlight Track Log ✈ AAL1459 ✈ 06-May-2013 ✈ KORD - KRNO

Flight Track Log - Related Links

Times and Time Zones

All times are in EDT time to prevent confusion due to time zone crossing. See the AAL1459 flight status page for this flight to view local times or setup timezone preferences in your user account.

Time Position Orientation Groundspeed Altitude Reporting Facility
EDT Latitude Longitude Course Direction KTS MPH feet Rate Location/Type
06:18PM 42.0000 -87.9500 270° West 172 198 2,000  Level Chicago TRACON
06:20PM 41.9667 -88.2222 270° West  Level FlightAware Approximate
06:20PM 42.1308 -88.0656 327° Northwest 266 306 6,100  Level Chicago Center
06:21PM 41.9667 -88.3833 270° West  Level FlightAware Approximate
06:22PM 41.9667 -88.5444 270° West  Level FlightAware Approximate
06:22PM 42.1867 -88.1383 316° Northwest 293 337 9,400  Level Chicago Center
06:23PM 41.9667 -88.7055 270° West  Level FlightAware Approximate
06:24PM 41.9668 -88.8666 270° West  Level FlightAware Approximate
06:24PM 42.1625 -88.3636 262° West 320 368 13,700  Level Chicago Center
06:25PM 42.1581 -88.5083 268° West 377 434 15,400 1,980 Climbing Chicago Center
06:26PM 42.1528 -88.6928 268° West 412 474 17,800 2,220 Climbing Chicago Center
06:27PM 42.1478 -88.8561 268° West 432 497 20,100 1,980 Climbing Chicago Center
06:28PM 42.1419 -89.0225 267° West 441 507 22,000 1,680 Climbing Chicago Center
06:29PM 42.1372 -89.1925 268° West 451 519 23,600 1,440 Climbing Chicago Center
06:31PM 42.1272 -89.5486 268° West 476 548 26,500 1,440 Climbing Chicago Center
06:33PM 42.1236 -89.9433 269° West 481 554 29,800 1,380 Climbing Chicago Center
06:35PM 42.0901 -90.1986 260° West  Level FlightAware Approximate
06:36PM 42.1164 -90.4789 260° West 475 547 33,900  Level Chicago Center
06:37PM 42.1161 -90.6528 270° West 476 548 34,900 1,020 Climbing Chicago Center
06:38PM 42.1433 -90.8619 280° West 479 551 36,100 1,020 Climbing Chicago Center
06:39PM 42.1758 -91.0336 284° West 476 548 37,100 900 Climbing Chicago Center
06:40PM 42.2078 -91.2042 284° West 475 547 38,000 240 Climbing Chicago Center
06:42PM 42.2714 -91.5381 285° West 461 531 38,000  Level Chicago Center
06:43PM 42.3019 -91.7067 284° West 463 533 38,000  Level Chicago Center
06:44PM 42.3397 -91.9092 284° West 463 533 38,000  Level Chicago Center
06:46PM 42.4003 -92.2492 284° West 464 534 38,000  Level Chicago Center
06:47PM 42.4306 -92.4192 284° West 465 535 38,000  Level Minneapolis Center
06:49PM 42.4502 -92.5965 270° West  Level FlightAware Approximate
06:49PM 42.4783 -92.7914 270° West 459 528 38,000  Level Minneapolis Center
06:52PM 42.4797 -93.1283 270° West 452 520 38,000  Level Chicago Center
06:53PM 42.4803 -93.2964 270° West 451 519 38,000  Level Chicago Center
06:54PM 42.4803 -93.4622 270° West 447 514 38,000  Level Chicago Center
06:55PM 42.4828 -93.6597 271° West 440 506 38,000  Level Minneapolis Center
06:57PM 42.4822 -93.9844 270° West 436 502 38,000  Level Chicago Center
06:58PM 42.4833 -94.1456 271° West 433 498 38,000  Level Minneapolis Center
07:01PM 42.4797 -94.6844 270° West 439 505 38,000  Level Minneapolis Center
07:02PM 42.4794 -94.8522 270° West 442 509 38,000  Level Minneapolis Center
07:03PM 42.4783 -95.0181 270° West 443 510 38,000  Level Minneapolis Center
07:05PM 42.4702 -95.2742 268° West  Level FlightAware Approximate
07:06PM 42.4717 -95.5583 268° West 453 521 38,000  Level Minneapolis Center
07:07PM 42.4697 -95.7244 269° West 446 513 38,000  Level Minneapolis Center
07:08PM 42.4672 -95.8906 269° West 442 509 38,000  Level Minneapolis Center
07:09PM 42.4633 -96.0542 268° West 439 505 38,000  Level Minneapolis Center
07:10PM 42.4600 -96.2200 268° West 442 509 38,000  Level Minneapolis Center
07:11PM 42.4578 -96.3833 269° West 437 503 38,000  Level Minneapolis Center
07:12PM 42.4307 -96.3949 268° West  Level FlightAware Approximate
07:13PM 42.4512 -96.5957 268° West  Level FlightAware Approximate
07:14PM 42.4450 -96.9192 268° West 448 516 38,000  Level Minneapolis Center
07:16PM 42.4397 -97.1154 268° West  Level Estimated
07:16PM 42.4356 -97.2583 268° West 451 519 38,000  Level Minneapolis Center
07:17PM 42.4306 -97.4272 268° West 451 519 38,000  Level Minneapolis Center
07:18PM 42.4242 -97.6319 268° West 454 522 38,000  Level Minneapolis Center
07:19PM 42.4186 -97.8025 268° West 454 522 38,000  Level Minneapolis Center
07:20PM 42.4094 -97.7241 268° West  Level FlightAware Approximate
07:20PM 42.4119 -97.9800 267° West 449 517 38,000  Level Minneapolis Center
07:22PM 42.4072 -98.1483 268° West 450 518 38,000  Level Minneapolis Center
07:23PM 42.4000 -98.3178 267° West 452 520 38,000  Level Minneapolis Center
07:24PM 42.3933 -98.4853 267° West 448 516 38,000  Level Minneapolis Center
07:25PM 42.3875 -98.6525 267° West 447 514 38,000  Level Minneapolis Center
07:26PM 42.3806 -98.8194 267° West 447 514 38,000  Level Minneapolis Center
07:27PM 42.3719 -99.0208 267° West 449 517 38,000  Level Minneapolis Center
07:28PM 42.3636 -99.1892 266° West 450 518 38,000  Level Minneapolis Center
07:29PM 42.3553 -99.3594 266° West 455 524 38,000  Level Minneapolis Center
07:29PM 42.3508 -99.4594 267° West 452 520 38,000  Level Denver Center
07:32PM 42.3239 -99.9928 266° West 450 518 38,000  Level Denver Center
07:33PM 42.3156 -100.1533 266° West 448 516 38,000  Level Denver Center
07:35PM 42.3056 -100.3378 266° West 444 511 38,000  Level Denver Center
07:36PM 42.2956 -100.4978 265° West 447 514 38,000  Level Denver Center
07:37PM 42.2861 -100.6811 266° West 441 507 38,000  Level Denver Center
07:39PM 42.2625 -100.9367 263° West  Level FlightAware Approximate
07:40PM 42.2511 -101.2192 263° West 438 504 38,000  Level Salt Lake Center
07:41PM 42.2444 -101.3553 266° West 436 502 38,000  Level Denver Center
07:42PM 42.2353 -101.5103 265° West 434 499 38,000  Level Denver Center
07:44PM 42.2078 -101.8944 265° West 437 503 38,000  Level Salt Lake Center
07:45PM 42.1992 -102.0297 265° West 437 503 38,000  Level Denver Center
07:46PM 42.1892 -102.1850 265° West 436 502 38,000  Level Denver Center
07:47PM 42.1739 -102.3619 263° West 434 499 38,000  Level Denver Center
07:49PM 42.1387 -102.6135 264° West  Level FlightAware Approximate
07:49PM 42.1500 -102.6956 264° West 431 496 38,000  Level Denver Center
07:51PM 42.1261 -103.0028 264° West 428 493 38,000  Level Denver Center
07:52PM 42.1114 -103.1853 264° West 436 502 38,000  Level Denver Center
07:53PM 42.0992 -103.3394 264° West 435 501 38,000  Level Denver Center
07:54PM 42.0836 -103.5181 263° West 431 496 38,000  Level Denver Center
07:55PM 42.0703 -103.6708 263° West 429 494 38,000  Level Denver Center
07:56PM 42.0556 -103.8469 264° West 425 489 38,000  Level Denver Center
07:57PM 42.0428 -103.9981 264° West 423 487 38,000  Level Denver Center
07:58PM 42.0267 -104.1783 263° West 433 498 38,000  Level Denver Center
08:00PM 41.9944 -104.5125 263° West 434 499 38,000  Level Salt Lake Center
08:02PM 41.9781 -104.6925 263° West 433 498 38,000  Level Salt Lake Center
08:02PM 41.9678 -104.8208 264° West 435 501 38,000  Level Denver Center
08:03PM 41.9506 -105.0003 263° West 433 498 38,000  Level Denver Center
08:04PM 41.9350 -105.1542 262° West 433 498 38,000  Level Denver Center
08:07PM 41.9014 -105.4917 262° West 439 505 38,000  Level Denver Center
08:08PM 41.8822 -105.6742 262° West 442 509 38,000  Level Denver Center
08:10PM 41.8467 -106.0183 262° West 449 517 38,000  Level Salt Lake Center
08:11PM 41.8308 -106.1758 262° West 449 517 38,000  Level Denver Center
08:12PM 41.8136 -106.3342 262° West 450 518 38,000  Level Denver Center
08:15PM 41.7763 -106.6071 260° West  Level FlightAware Approximate
08:16PM 41.7325 -107.0497 260° West 444 511 38,000  Level Denver Center
08:17PM 41.7111 -107.2322 261° West 446 513 38,000  Level Denver Center
08:19PM 41.6711 -107.5736 261° West 449 517 38,000  Level Denver Center
08:20PM 41.6528 -107.7314 261° West 448 516 38,000  Level Denver Center
08:21PM 41.6325 -107.8889 260° West 450 518 38,000  Level Denver Center
08:22PM 41.6103 -108.0731 261° West 449 517 38,000  Level Denver Center
08:23PM 41.5933 -108.2067 260° West 452 520 38,000  Level Salt Lake Center
08:24PM 41.5739 -108.3642 261° West 452 520 38,000  Level Salt Lake Center
08:26PM 41.5231 -108.7544 260° West 449 517 38,000  Level Denver Center
08:27PM 41.5028 -108.9114 260° West 450 518 38,000  Level Denver Center
08:28PM 41.4853 -109.0436 260° West 454 522 38,000  Level Salt Lake Center
08:30PM 41.4585 -109.2169 258° West  Level FlightAware Approximate
08:30PM 41.4394 -109.3764 258° West 455 524 38,000  Level Salt Lake Center
08:31PM 41.4142 -109.5597 260° West 451 519 38,000  Level Salt Lake Center
08:32PM 41.3917 -109.7178 259° West 456 525 38,000  Level Salt Lake Center
08:33PM 41.3731 -109.9033 262° West 455 524 38,000  Level Salt Lake Center
08:34PM 41.3731 -110.0661 270° West 459 528 38,000  Level Salt Lake Center
08:36PM 41.3254 -110.2480 251° West  Level FlightAware Approximate
08:36PM 41.3736 -110.4172 251° West 457 526 38,000  Level Salt Lake Center
08:37PM 41.3858 -110.5789 276° West 458 527 38,000  Level Salt Lake Center
08:38PM 41.3994 -110.7683 276° West 460 529 38,000  Level Salt Lake Center
08:39PM 41.4111 -110.9306 276° West 461 531 38,000  Level Salt Lake Center
08:41PM 41.3745 -111.0979 254° West  Level FlightAware Approximate
08:41PM 41.3794 -111.2828 254° West 454 522 38,000  Level Salt Lake Center
08:43PM 41.3508 -111.4469 257° West 457 526 38,000  Level Salt Lake Center
08:45PM 41.2791 -111.7565 253° West  Level FlightAware Approximate
08:47PM 41.2311 -112.0969 254° West 464 534 38,000  Level Salt Lake Center
08:48PM 41.1944 -112.2931 256° West 462 532 38,000  Level Salt Lake Center
08:50PM 41.1317 -112.6208 256° West 461 531 38,000  Level Salt Lake Center
08:51PM 41.1000 -112.7856 256° West 463 533 38,000  Level Salt Lake Center
08:52PM 41.0575 -112.8484 254° West  Level FlightAware Approximate
08:52PM 41.0769 -112.9525 260° West 464 534 38,000  Level Salt Lake Center
08:53PM 41.0542 -113.1192 260° West 462 532 38,000  Level Salt Lake Center
08:54PM 41.0289 -113.2850 259° West 461 531 38,000  Level Salt Lake Center
08:56PM 40.9750 -113.6478 259° West 457 526 38,000  Level Salt Lake Center
08:57PM 40.9497 -113.8136 259° West 460 529 38,000  Level Salt Lake Center
08:58PM 40.9256 -113.9806 259° West 463 533 38,000  Level Salt Lake Center
08:59PM 40.8997 -114.1483 259° West 467 537 38,000  Level Salt Lake Center
09:00PM 40.8739 -114.3150 258° West 465 535 38,000  Level Salt Lake Center
09:01PM 40.8436 -114.5064 258° West 466 536 38,000  Level Salt Lake Center
09:02PM 40.8186 -114.6664 258° West 465 535 38,000  Level Salt Lake Center
09:03PM 40.7928 -114.8261 258° West 465 535 38,000  Level Salt Lake Center
09:04PM 40.7608 -115.0139 257° West 468 539 38,000  Level Salt Lake Center
09:05PM 40.7369 -115.1731 259° West 465 535 38,000  Level Salt Lake Center
09:06PM 40.7039 -115.3606 257° West 469 540 38,000  Level Salt Lake Center
09:07PM 40.6781 -115.5211 258° West 468 539 38,000  Level Salt Lake Center
09:08PM 40.6506 -115.6819 257° West 470 541 38,000  Level Salt Lake Center
09:09PM 40.6194 -115.8694 258° West 470 541 38,000  Level Salt Lake Center
09:10PM 40.5917 -116.0297 257° West 470 541 38,000  Level Salt Lake Center
09:11PM 40.5606 -116.2175 258° West 470 541 38,000  Level Salt Lake Center
09:13PM 40.5039 -116.5408 257° West 472 543 38,000  Level Oakland Center
09:14PM 40.4703 -116.7331 257° West 468 539 38,000  Level Oakland Center
09:15PM 40.4408 -116.8975 257° West 472 543 38,000  Level Salt Lake Center
09:16PM 40.4114 -117.0633 257° West 473 544 38,000  Level Salt Lake Center
09:18PM 40.3627 -117.2425 256° West  Level FlightAware Approximate
09:18PM 40.3472 -117.4089 256° West 471 542 38,000  Level Salt Lake Center
09:19PM 40.3178 -117.5703 257° West 474 545 38,000  Level Salt Lake Center
09:20PM 40.2825 -117.7578 256° West 475 547 38,000  Level Salt Lake Center
09:21PM 40.2503 -117.9194 255° West 476 548 38,000  Level Oakland Center
09:22PM 40.2197 -118.0731 255° West 477 549 38,000 -600 Level Oakland Center
09:23PM 40.1811 -118.2728 256° West 475 547 36,900 -1,080 Descending Oakland Center
09:24PM 40.1489 -118.4417 256° West 481 554 35,900 -1,920 Descending Oakland Center
09:25PM 40.1025 -118.6006 249° West 475 547 33,100 -3,240 Descending Oakland Center
09:26PM 40.0064 -118.7200 224° Southwest 482 555 29,300 -3,720 Descending Oakland Center
09:28PM 39.9089 -118.8383 223° Southwest 483 556 25,500 -3,300 Descending Oakland Center
09:29PM 39.8156 -118.9542 224° Southwest 471 542 22,700 -2,400 Descending Oakland Center
09:30PM 39.7244 -119.0611 222° Southwest 449 517 20,700 -1,860 Descending Oakland Center
09:31PM 39.6381 -119.1667 223° Southwest 433 498 19,000 -1,680 Descending Oakland Center
09:32PM 39.5308 -119.2953 223° Southwest 439 505 17,300 -1,500 Descending Oakland Center
09:33PM 39.4486 -119.3953 223° Southwest 414 476 16,000 -960 Descending Oakland Center
09:34PM 39.3786 -119.4781 222° Southwest 348 400 15,400 -960 Descending Oakland Center
09:36PM 39.2333 -119.6011 213° Southwest 307 353 13,100 -960 Descending Oakland Center
09:38PM 39.1097 -119.7042 213° Southwest 300 345 11,500 -1,020 Descending Oakland Center
09:39PM 39.1631 -119.7603 321° Northwest 270 311 10,100 -1,140 Descending Oakland Center
09:40PM 39.2272 -119.7619 359° North 243 280 9,200 -780 Descending Oakland Center
09:41PM 39.2847 -119.7628 359° North 225 259 8,600 -600 Descending Oakland Center